createdAt,value
2018-08-28T00:00:43.293Z,5.00
2018-08-28T00:03:11.575Z,4.43
2018-08-28T00:05:39.790Z,4.77
2018-08-28T00:08:08.016Z,4.50
2018-08-28T00:10:36.322Z,4.60
2018-08-28T00:13:04.950Z,4.67
2018-08-28T00:15:33.279Z,4.50
2018-08-28T00:18:01.514Z,5.30
2018-08-28T00:20:29.765Z,4.60
2018-08-28T00:22:58.194Z,4.80
2018-08-28T00:25:26.503Z,4.90
2018-08-28T00:27:54.808Z,4.57
2018-08-28T00:30:23.083Z,5.13
2018-08-28T00:32:51.443Z,4.57
2018-08-28T00:35:19.755Z,4.27
2018-08-28T00:37:48.053Z,4.70
2018-08-28T00:40:16.367Z,4.30
2018-08-28T00:42:44.598Z,5.20
2018-08-28T00:45:12.874Z,4.97
2018-08-28T00:47:41.146Z,5.07
2018-08-28T00:50:09.457Z,4.60
2018-08-28T00:52:37.734Z,5.00
2018-08-28T00:55:06.053Z,4.90
2018-08-28T00:57:34.326Z,4.53
2018-08-28T01:00:02.582Z,4.30
2018-08-28T01:02:30.917Z,4.87
2018-08-28T01:04:59.228Z,4.93
2018-08-28T01:07:27.506Z,5.13
2018-08-28T01:09:55.803Z,4.40
2018-08-28T01:12:24.096Z,5.50
2018-08-28T01:14:52.328Z,5.10
2018-08-28T01:17:20.611Z,5.23
2018-08-28T01:19:48.875Z,4.50
2018-08-28T01:22:17.146Z,4.90
2018-08-28T01:24:45.422Z,4.90
2018-08-28T01:27:13.727Z,5.20
2018-08-28T01:29:41.973Z,4.80
2018-08-28T01:32:10.247Z,4.63
2018-08-28T01:34:38.590Z,5.23
2018-08-28T01:37:06.980Z,4.90
2018-08-28T01:39:35.272Z,5.50
2018-08-28T01:42:03.558Z,5.30
2018-08-28T01:44:31.885Z,5.53
2018-08-28T01:47:00.266Z,4.90
2018-08-28T01:49:28.482Z,5.20
2018-08-28T01:51:58.163Z,5.07
2018-08-28T01:54:26.487Z,5.27
2018-08-28T01:56:54.746Z,4.37
2018-08-28T01:59:23.035Z,4.90
2018-08-28T02:01:51.318Z,4.90
2018-08-28T02:04:19.606Z,4.70
2018-08-28T02:06:47.847Z,4.53
2018-08-28T02:09:16.097Z,4.47
2018-08-28T02:11:44.333Z,4.87
2018-08-28T02:14:12.594Z,4.70
2018-08-28T02:16:40.902Z,4.80
2018-08-28T02:19:09.158Z,4.93
2018-08-28T02:21:37.493Z,4.60
2018-08-28T02:24:06.143Z,4.77
2018-08-28T02:26:34.558Z,4.67
2018-08-28T02:29:02.881Z,4.60
2018-08-28T02:31:31.223Z,5.03
2018-08-28T02:33:59.459Z,4.87
2018-08-28T02:36:27.738Z,5.00
2018-08-28T02:38:56.033Z,4.87
2018-08-28T02:41:24.284Z,4.93
2018-08-28T02:43:52.539Z,5.10
2018-08-28T02:46:20.769Z,4.57
2018-08-28T02:48:49.009Z,5.67
2018-08-28T02:51:17.327Z,5.27
2018-08-28T02:53:45.655Z,4.93
2018-08-28T02:56:13.900Z,4.87
2018-08-28T02:58:42.167Z,5.10
2018-08-28T03:01:10.452Z,5.50
2018-08-28T03:03:38.712Z,4.87
2018-08-28T03:06:06.989Z,5.17
2018-08-28T03:08:35.199Z,4.83
2018-08-28T03:11:03.474Z,4.30
2018-08-28T03:13:31.746Z,4.67
2018-08-28T03:16:00.061Z,4.80
2018-08-28T03:18:28.374Z,4.90
2018-08-28T03:20:56.735Z,4.90
2018-08-28T03:23:24.977Z,4.87
2018-08-28T03:25:53.269Z,4.30
2018-08-28T03:28:21.586Z,4.43
2018-08-28T03:30:49.898Z,4.43
2018-08-28T03:33:18.251Z,4.87
2018-08-28T03:35:46.500Z,4.77
2018-08-28T03:38:15.010Z,4.73
2018-08-28T03:40:43.254Z,5.10
2018-08-28T03:43:11.504Z,4.40
2018-08-28T03:45:39.742Z,4.90
2018-08-28T03:48:08.088Z,4.80
2018-08-28T03:50:36.393Z,4.77
2018-08-28T03:53:05.173Z,4.30
2018-08-28T03:55:33.460Z,4.50
2018-08-28T03:58:01.723Z,4.20
2018-08-28T04:00:30.018Z,4.73
2018-08-28T04:02:58.319Z,3.87
2018-08-28T04:05:26.577Z,4.57
2018-08-28T04:07:54.855Z,4.57
2018-08-28T04:10:23.114Z,4.57
2018-08-28T04:12:51.398Z,4.83
2018-08-28T04:15:19.726Z,4.47
2018-08-28T04:17:50.018Z,5.17
2018-08-28T04:20:19.593Z,4.03
2018-08-28T04:22:48.065Z,4.73
2018-08-28T04:25:17.183Z,5.30
2018-08-28T04:27:45.981Z,4.57
2018-08-28T04:30:14.314Z,5.23
2018-08-28T04:34:50.845Z,5.10
2018-08-28T04:37:20.590Z,4.50
2018-08-28T04:39:48.878Z,4.90
2018-08-28T04:42:17.118Z,4.67
2018-08-28T04:44:45.446Z,4.97
2018-08-28T04:47:13.825Z,4.23
2018-08-28T04:49:42.124Z,5.03
2018-08-28T04:52:10.544Z,5.23
2018-08-28T04:54:38.967Z,4.90
2018-08-28T04:57:07.285Z,4.27
2018-08-28T04:59:35.522Z,4.63
2018-08-28T05:02:03.915Z,5.63
2018-08-28T05:04:32.270Z,5.20
2018-08-28T05:07:00.658Z,5.57
2018-08-28T05:09:28.910Z,5.23
2018-08-28T05:11:57.299Z,5.43
2018-08-28T05:14:25.629Z,4.97
2018-08-28T05:16:53.960Z,5.10
2018-08-28T05:19:22.315Z,4.83
2018-08-28T05:21:50.481Z,5.50
2018-08-28T05:24:18.754Z,5.40
2018-08-28T05:26:47.037Z,5.90
2018-08-28T05:29:15.666Z,5.10
2018-08-28T05:31:44.037Z,5.30
2018-08-28T05:34:12.289Z,5.33
2018-08-28T05:36:40.654Z,5.33
2018-08-28T05:39:08.988Z,4.90
2018-08-28T05:41:37.458Z,5.13
2018-08-28T05:44:05.782Z,5.40
2018-08-28T05:46:34.067Z,6.23
2018-08-28T05:49:02.998Z,6.37
2018-08-28T05:51:31.251Z,6.80
2018-08-28T05:53:59.483Z,6.07
2018-08-28T05:56:27.851Z,6.07
2018-08-28T05:58:56.125Z,5.63
2018-08-28T06:01:24.383Z,5.80
2018-08-28T06:03:52.662Z,6.87
2018-08-28T06:06:20.920Z,6.00
2018-08-28T06:08:49.272Z,6.30
2018-08-28T06:11:17.731Z,6.13
2018-08-28T06:13:46.106Z,6.73
2018-08-28T06:16:14.357Z,6.10
2018-08-28T06:18:42.708Z,6.97
2018-08-28T06:21:11.171Z,7.63
2018-08-28T06:23:39.507Z,6.10
2018-08-28T06:26:07.865Z,6.77
2018-08-28T06:28:36.112Z,7.17
2018-08-28T06:31:04.494Z,7.93
2018-08-28T06:33:32.810Z,8.90
2018-08-28T06:36:01.182Z,7.70
2018-08-28T06:38:29.534Z,7.20
2018-08-28T06:40:57.809Z,5.83
2018-08-28T06:43:26.097Z,7.00
2018-08-28T06:45:54.612Z,6.83
2018-08-28T06:48:22.889Z,6.00
2018-08-28T06:50:51.233Z,6.03
2018-08-28T06:53:19.606Z,6.87
2018-08-28T06:55:47.877Z,8.23
2018-08-28T06:58:16.129Z,7.10
2018-08-28T07:00:44.365Z,7.10
2018-08-28T07:03:12.637Z,7.27
2018-08-28T07:05:40.956Z,7.10
2018-08-28T07:08:09.263Z,8.03
2018-08-28T07:10:37.553Z,6.07
2018-08-28T07:13:05.914Z,6.30
2018-08-28T07:15:34.247Z,6.40
2018-08-28T07:18:02.618Z,6.10
2018-08-28T07:20:30.871Z,4.87
2018-08-28T07:22:59.147Z,5.80
2018-08-28T07:25:27.407Z,5.43
2018-08-28T07:27:55.656Z,5.43
2018-08-28T07:30:24.070Z,5.37
2018-08-28T07:32:52.395Z,5.57
2018-08-28T07:35:20.702Z,5.63
2018-08-28T07:37:48.986Z,5.17
2018-08-28T07:40:17.275Z,5.30
2018-08-28T07:42:45.609Z,5.10
2018-08-28T07:45:13.875Z,4.60
2018-08-28T07:47:42.149Z,4.87
2018-08-28T07:50:10.374Z,4.60
2018-08-28T07:52:38.744Z,4.47
2018-08-28T07:55:07.059Z,4.67
2018-08-28T07:57:35.423Z,4.70
2018-08-28T08:00:03.747Z,5.17
2018-08-28T08:02:32.053Z,5.00
2018-08-28T08:05:00.337Z,5.33
2018-08-28T08:07:28.666Z,5.87
2018-08-28T08:09:56.997Z,6.70
2018-08-28T08:12:25.273Z,5.73
2018-08-28T08:14:53.943Z,4.50
2018-08-28T08:17:22.280Z,5.37
2018-08-28T08:19:50.495Z,5.20
2018-08-28T08:22:18.902Z,5.57
2018-08-28T08:24:47.117Z,4.63
2018-08-28T08:27:15.413Z,4.80
2018-08-28T08:29:43.694Z,5.50
2018-08-28T08:32:12.005Z,6.13
2018-08-28T08:34:40.321Z,5.50
2018-08-28T08:37:08.699Z,5.77
2018-08-28T08:39:37.018Z,6.03
2018-08-28T08:42:05.352Z,5.97
2018-08-28T08:44:33.597Z,4.67
2018-08-28T08:47:01.862Z,5.60
2018-08-28T08:49:30.150Z,6.17
2018-08-28T08:51:58.493Z,6.47
2018-08-28T08:54:26.833Z,5.13
2018-08-28T08:56:55.958Z,4.87
2018-08-28T08:59:24.239Z,5.93
2018-08-28T09:01:52.470Z,5.30
2018-08-28T09:04:20.882Z,5.77
2018-08-28T09:06:49.087Z,6.43
2018-08-28T09:09:17.355Z,5.97
2018-08-28T09:11:45.597Z,7.00
2018-08-28T09:14:13.906Z,6.90
2018-08-28T09:16:42.221Z,6.03
2018-08-28T09:19:10.713Z,6.53
2018-08-28T09:21:38.964Z,6.17
2018-08-28T09:24:07.201Z,5.53
2018-08-28T09:26:35.492Z,7.30
2018-08-28T09:29:03.857Z,7.10
2018-08-28T09:31:32.173Z,6.10
2018-08-28T09:34:00.479Z,7.07
2018-08-28T09:36:28.856Z,8.10
2018-08-28T09:38:57.154Z,7.97
2018-08-28T09:41:25.419Z,7.93
2018-08-28T09:43:53.715Z,7.57
2018-08-28T09:46:21.934Z,7.80
2018-08-28T09:48:50.231Z,7.37
2018-08-28T09:51:18.546Z,6.37
2018-08-28T09:53:46.876Z,7.03
2018-08-28T09:56:15.182Z,6.70
2018-08-28T09:58:43.476Z,6.77
2018-08-28T10:01:16.987Z,6.87
2018-08-28T10:03:45.336Z,7.20
2018-08-28T10:06:13.641Z,6.77
2018-08-28T10:08:41.912Z,6.90
2018-08-28T10:11:10.534Z,7.13
2018-08-28T10:13:38.789Z,7.33
2018-08-28T10:16:07.091Z,7.60
2018-08-28T10:18:35.447Z,7.07
2018-08-28T10:21:03.712Z,6.33
2018-08-28T10:23:32.001Z,7.10
2018-08-28T10:26:00.309Z,6.60
2018-08-28T10:28:28.578Z,7.07
2018-08-28T10:30:56.837Z,7.30
2018-08-28T10:33:25.121Z,7.07
2018-08-28T10:35:53.401Z,6.83
2018-08-28T10:38:21.631Z,6.90
2018-08-28T10:40:49.970Z,6.20
2018-08-28T10:43:18.235Z,6.83
2018-08-28T10:45:46.570Z,6.13
2018-08-28T10:48:14.901Z,6.03
2018-08-28T10:50:43.166Z,6.20
2018-08-28T10:53:11.411Z,6.13
2018-08-28T10:55:39.749Z,6.27
2018-08-28T10:58:08.041Z,5.93
2018-08-28T11:00:36.340Z,6.70
2018-08-28T11:03:04.702Z,6.83
2018-08-28T11:05:32.918Z,7.07
2018-08-28T11:08:01.187Z,5.90
2018-08-28T11:10:29.538Z,7.27
2018-08-28T11:12:57.985Z,6.67
2018-08-28T11:15:26.294Z,6.37
2018-08-28T11:17:54.630Z,7.40
2018-08-28T11:20:22.916Z,6.73
2018-08-28T11:22:51.309Z,6.70
2018-08-28T11:25:19.626Z,6.70
2018-08-28T11:27:47.995Z,6.53
2018-08-28T11:30:16.310Z,6.40
2018-08-28T11:32:44.938Z,6.10
2018-08-28T11:35:13.217Z,6.63
2018-08-28T11:37:41.491Z,6.07
2018-08-28T11:40:09.791Z,6.87
2018-08-28T11:42:38.041Z,6.23
2018-08-28T11:45:06.719Z,6.00
2018-08-28T11:47:34.958Z,6.53
2018-08-28T11:50:03.231Z,7.03
2018-08-28T11:52:31.665Z,6.53
2018-08-28T11:54:59.908Z,7.17
2018-08-28T11:57:28.130Z,5.70
2018-08-28T11:59:56.395Z,7.10
2018-08-28T12:02:24.691Z,6.30
2018-08-28T12:04:53.168Z,6.03
2018-08-28T12:07:21.876Z,6.23
2018-08-28T12:09:50.115Z,6.43
2018-08-28T12:12:18.394Z,5.83
2018-08-28T12:14:46.681Z,6.70
2018-08-28T12:17:15.225Z,6.17
2018-08-28T12:19:43.519Z,5.93
2018-08-28T12:22:11.733Z,6.63
2018-08-28T12:24:39.967Z,5.60
2018-08-28T12:27:08.226Z,5.40
2018-08-28T12:29:36.531Z,6.00
2018-08-28T12:32:04.774Z,6.47
2018-08-28T12:34:32.998Z,6.23
2018-08-28T12:37:01.266Z,6.07
2018-08-28T12:39:29.467Z,5.17
2018-08-28T12:41:57.674Z,6.13
2018-08-28T12:44:25.970Z,6.00
2018-08-28T12:46:54.698Z,5.53
2018-08-28T12:49:22.920Z,5.87
2018-08-28T12:51:51.160Z,5.70
2018-08-28T12:54:19.510Z,5.73
2018-08-28T12:56:47.927Z,5.80
2018-08-28T12:59:16.230Z,5.57
2018-08-28T13:01:44.502Z,5.23
2018-08-28T13:04:12.753Z,5.63
2018-08-28T13:06:41.013Z,6.00
2018-08-28T13:09:09.295Z,5.93
2018-08-28T13:11:37.599Z,5.57
2018-08-28T13:14:06.031Z,5.70
2018-08-28T13:16:34.398Z,5.37
2018-08-28T13:19:02.822Z,5.50
2018-08-28T13:21:31.041Z,5.03
2018-08-28T13:23:59.349Z,4.53
2018-08-28T13:26:27.697Z,5.90
2018-08-28T13:28:55.907Z,5.67
2018-08-28T13:31:24.273Z,5.30
2018-08-28T13:33:52.542Z,4.40
2018-08-28T13:36:20.865Z,5.27
2018-08-28T13:38:49.117Z,5.63
2018-08-28T13:41:17.470Z,4.50
2018-08-28T13:43:45.730Z,5.30
2018-08-28T13:46:13.974Z,4.83
2018-08-28T13:48:42.245Z,4.77
2018-08-28T13:51:10.559Z,4.57
2018-08-28T13:53:38.907Z,5.80
2018-08-28T13:56:07.109Z,5.07
2018-08-28T13:58:35.513Z,4.60
2018-08-28T14:01:03.891Z,4.47
2018-08-28T14:03:32.205Z,4.90
2018-08-28T14:06:00.539Z,4.50
2018-08-28T14:08:28.805Z,4.63
2018-08-28T14:10:57.048Z,4.30
2018-08-28T14:13:25.449Z,4.43
2018-08-28T14:15:53.628Z,5.03
2018-08-28T14:18:21.978Z,4.80
2018-08-28T14:20:50.254Z,4.03
2018-08-28T14:23:18.523Z,3.93
2018-08-28T14:25:46.793Z,4.50
2018-08-28T14:28:15.102Z,4.50
2018-08-28T14:30:43.363Z,4.97
2018-08-28T14:33:11.635Z,4.80
2018-08-28T14:35:40.021Z,4.70
2018-08-28T14:38:08.277Z,4.00
2018-08-28T14:40:36.557Z,4.43
2018-08-28T14:43:04.842Z,3.87
2018-08-28T14:45:33.175Z,4.47
2018-08-28T14:48:01.533Z,3.93
2018-08-28T14:50:29.915Z,4.43
2018-08-28T14:52:58.143Z,4.87
2018-08-28T14:55:26.460Z,4.17
2018-08-28T14:57:54.767Z,3.97
2018-08-28T15:00:23.027Z,4.17
2018-08-28T15:02:51.351Z,3.80
2018-08-28T15:05:19.638Z,4.47
2018-08-28T15:07:47.914Z,4.43
2018-08-28T15:10:16.221Z,4.37
2018-08-28T15:12:44.506Z,4.50
2018-08-28T15:15:12.769Z,4.90
2018-08-28T15:17:41.056Z,4.53
2018-08-28T15:20:09.413Z,4.77
2018-08-28T15:22:38.041Z,4.17
2018-08-28T15:25:06.863Z,4.30
2018-08-28T15:27:35.165Z,3.90
2018-08-28T15:30:03.447Z,4.73
2018-08-28T15:32:31.769Z,4.73
2018-08-28T15:35:00.018Z,5.23
2018-08-28T15:37:28.433Z,4.83
2018-08-28T15:39:56.704Z,4.60
2018-08-28T15:42:24.950Z,4.90
2018-08-28T15:44:53.397Z,4.80
2018-08-28T15:47:21.725Z,4.37
2018-08-28T15:49:50.042Z,3.93
2018-08-28T15:52:18.303Z,4.07
2018-08-28T15:54:46.544Z,4.10
2018-08-28T15:57:14.877Z,3.97
2018-08-28T15:59:43.150Z,4.03
2018-08-28T16:02:11.648Z,4.47
2018-08-28T16:04:39.859Z,3.90
2018-08-28T16:07:08.063Z,4.03
2018-08-28T16:09:36.425Z,4.53
2018-08-28T16:12:04.762Z,4.47
2018-08-28T16:14:33.038Z,3.77
2018-08-28T16:17:01.324Z,3.97
2018-08-28T16:19:29.661Z,3.63
2018-08-28T16:21:59.541Z,4.77
2018-08-28T16:24:27.838Z,4.10
2018-08-28T16:26:56.509Z,4.03
2018-08-28T16:29:24.786Z,3.97
2018-08-28T16:31:53.198Z,4.03
2018-08-28T16:34:21.491Z,3.53
2018-08-28T16:36:49.754Z,3.43
2018-08-28T16:39:18.111Z,4.03
2018-08-28T16:41:46.512Z,3.80
2018-08-28T16:44:14.855Z,3.40
2018-08-28T16:46:43.145Z,4.20
2018-08-28T16:49:11.415Z,3.53
2018-08-28T16:51:39.650Z,4.67
2018-08-28T16:54:07.931Z,3.83
2018-08-28T16:56:36.174Z,3.60
2018-08-28T16:59:04.759Z,4.00
2018-08-28T17:01:33.157Z,3.93
2018-08-28T17:04:07.977Z,4.57
2018-08-28T17:06:36.276Z,4.33
2018-08-28T17:09:05.225Z,3.90
2018-08-28T17:11:33.570Z,4.03
2018-08-28T17:14:01.844Z,4.00
2018-08-28T17:16:30.207Z,3.77
2018-08-28T17:18:58.581Z,3.70
2018-08-28T17:21:26.906Z,3.83
2018-08-28T17:23:55.198Z,5.00
2018-08-28T17:26:23.474Z,4.00
2018-08-28T17:28:51.736Z,4.20
2018-08-28T17:31:20.010Z,3.70
2018-08-28T17:33:48.315Z,3.87
2018-08-28T17:36:16.638Z,4.03
2018-08-28T17:38:44.942Z,4.13
2018-08-28T17:41:13.257Z,4.13
2018-08-28T17:43:41.528Z,3.80
2018-08-28T17:46:10.166Z,4.17
2018-08-28T17:48:38.406Z,4.30
2018-08-28T17:51:06.734Z,4.57
2018-08-28T17:53:35.042Z,4.00
2018-08-28T17:56:03.323Z,4.30
2018-08-28T17:58:31.656Z,3.97
2018-08-28T18:00:59.896Z,4.27
2018-08-28T18:03:28.210Z,4.30
2018-08-28T18:05:56.814Z,4.57
2018-08-28T18:08:25.078Z,4.20
2018-08-28T18:10:53.383Z,4.07
2018-08-28T18:13:21.642Z,3.73
2018-08-28T18:15:49.952Z,4.10
2018-08-28T18:18:18.258Z,3.70
2018-08-28T18:20:46.638Z,4.37
2018-08-28T18:23:14.886Z,4.07
2018-08-28T18:25:43.188Z,4.03
2018-08-28T18:28:11.557Z,4.30
2018-08-28T18:30:39.794Z,4.23
2018-08-28T18:33:08.134Z,3.87
2018-08-28T18:35:36.442Z,4.80
2018-08-28T18:38:04.806Z,4.30
2018-08-28T18:40:33.150Z,4.07
2018-08-28T18:43:01.558Z,4.60
2018-08-28T18:45:30.066Z,4.30
2018-08-28T18:47:58.414Z,4.57
2018-08-28T18:50:26.639Z,4.80
2018-08-28T18:52:54.871Z,4.90
2018-08-28T18:55:23.235Z,4.77
2018-08-28T18:57:52.657Z,4.67
2018-08-28T19:00:21.378Z,4.70
2018-08-28T19:02:51.030Z,4.77
2018-08-28T19:05:19.583Z,4.60
2018-08-28T19:07:51.152Z,4.60
2018-08-28T19:10:21.531Z,4.13
2018-08-28T19:12:50.897Z,5.10
2018-08-28T19:15:19.246Z,4.40
2018-08-28T19:17:47.618Z,4.30
2018-08-28T19:20:15.917Z,4.90
2018-08-28T19:22:44.282Z,5.13
2018-08-28T19:25:12.603Z,4.70
2018-08-28T19:27:40.991Z,4.70
2018-08-28T19:30:09.433Z,4.77
2018-08-28T19:32:37.774Z,5.20
2018-08-28T19:35:06.310Z,7.03
2018-08-28T19:37:34.656Z,7.50
2018-08-28T19:40:02.898Z,8.00
2018-08-28T19:42:31.201Z,6.60
2018-08-28T19:44:59.498Z,5.70
2018-08-28T19:47:27.779Z,5.27
2018-08-28T19:49:56.148Z,5.50
2018-08-28T19:52:24.326Z,4.57
2018-08-28T19:54:52.615Z,5.60
2018-08-28T19:57:20.909Z,5.63
2018-08-28T19:59:49.247Z,4.97
2018-08-28T20:02:17.494Z,5.30
2018-08-28T20:04:45.803Z,5.27
2018-08-28T20:07:14.090Z,5.03
2018-08-28T20:09:42.370Z,4.13
2018-08-28T20:12:10.626Z,4.80
2018-08-28T20:14:38.939Z,4.67
2018-08-28T20:17:07.170Z,5.37
2018-08-28T20:19:35.447Z,5.53
2018-08-28T20:22:03.698Z,4.83
2018-08-28T20:24:31.944Z,4.93
2018-08-28T20:27:00.258Z,5.27
2018-08-28T20:29:28.429Z,5.00
2018-08-28T20:31:56.727Z,4.87
2018-08-28T20:34:24.967Z,4.97
2018-08-28T20:36:53.320Z,5.20
2018-08-28T20:39:21.589Z,4.70
2018-08-28T20:41:49.879Z,5.03
2018-08-28T20:44:18.092Z,4.63
2018-08-28T20:46:46.321Z,4.70
2018-08-28T20:49:14.609Z,4.80
2018-08-28T20:51:42.881Z,5.63
2018-08-28T20:54:11.193Z,4.80
2018-08-28T20:56:39.574Z,5.10
2018-08-28T20:59:08.077Z,4.67
2018-08-28T21:01:36.328Z,5.23
2018-08-28T21:04:04.583Z,5.07
2018-08-28T21:06:32.825Z,4.90
2018-08-28T21:09:01.089Z,4.93
2018-08-28T21:11:29.410Z,5.60
2018-08-28T21:13:57.714Z,5.00
2018-08-28T21:16:25.989Z,5.37
2018-08-28T21:18:54.277Z,5.53
2018-08-28T21:21:22.551Z,5.00
2018-08-28T21:23:50.841Z,4.93
2018-08-28T21:26:19.180Z,5.70
2018-08-28T21:28:47.448Z,5.10
2018-08-28T21:31:15.764Z,5.20
2018-08-28T21:33:44.020Z,5.63
2018-08-28T21:36:12.318Z,5.93
2018-08-28T21:38:40.701Z,6.67
2018-08-28T21:41:08.997Z,6.63
2018-08-28T21:43:37.304Z,5.90
2018-08-28T21:46:05.528Z,6.57
2018-08-28T21:48:33.798Z,6.57
2018-08-28T21:51:02.066Z,7.23
2018-08-28T21:53:30.490Z,7.17
2018-08-28T21:55:58.733Z,7.13
2018-08-28T21:58:26.992Z,6.67
2018-08-28T22:01:00.688Z,6.60
2018-08-28T22:03:28.930Z,5.63
2018-08-28T22:05:57.202Z,4.97
2018-08-28T22:08:25.631Z,5.80
2018-08-28T22:10:54.032Z,5.60
2018-08-28T22:13:22.469Z,5.37
2018-08-28T22:15:50.716Z,4.93
2018-08-28T22:18:19.031Z,5.13
2018-08-28T22:20:52.602Z,5.57
2018-08-28T22:23:20.907Z,5.20
2018-08-28T22:25:49.388Z,5.30
2018-08-28T22:28:17.638Z,5.30
2018-08-28T22:30:45.886Z,5.40
2018-08-28T22:33:14.193Z,5.70
2018-08-28T22:35:42.923Z,5.97
2018-08-28T22:38:11.202Z,5.10
2018-08-28T22:40:39.627Z,5.33
2018-08-28T22:43:08.859Z,5.67
2018-08-28T22:45:37.334Z,5.70
2018-08-28T22:48:06.032Z,5.20
2018-08-28T22:50:34.702Z,5.80
2018-08-28T22:53:03.021Z,5.93
2018-08-28T22:55:31.421Z,5.10
2018-08-28T22:57:59.702Z,5.73
2018-08-28T23:00:27.945Z,5.73
2018-08-28T23:02:56.263Z,5.10
2018-08-28T23:05:24.526Z,5.07
2018-08-28T23:07:52.857Z,6.00
2018-08-28T23:10:21.447Z,5.60
2018-08-28T23:12:51.176Z,5.33
2018-08-28T23:15:19.526Z,5.70
2018-08-28T23:17:47.771Z,5.37
2018-08-28T23:20:16.160Z,5.80
2018-08-28T23:22:44.445Z,6.80
2018-08-28T23:25:12.744Z,5.33
2018-08-28T23:27:41.053Z,5.33
2018-08-28T23:30:09.328Z,5.03
2018-08-28T23:32:37.607Z,5.47
2018-08-28T23:35:05.983Z,5.43
2018-08-28T23:37:34.301Z,5.63
2018-08-28T23:40:02.698Z,5.77
2018-08-28T23:42:30.938Z,5.80
2018-08-28T23:44:59.231Z,5.83
2018-08-28T23:47:27.493Z,5.57
2018-08-28T23:49:55.749Z,4.90
2018-08-28T23:52:24.026Z,5.80
2018-08-28T23:54:52.291Z,5.40
2018-08-28T23:57:20.654Z,5.70
2018-08-28T23:59:48.961Z,6.27
